US-0295 weather

John Muir Mt. Diablo Medical Center Heliport
Brentwood, California, United States

Public forecast

Using degrees Fahrenheit for public forecast. Weather courtesy of forecast.io.

Closest aviation weather report (METAR) to John Muir Mt. Diablo Medical Center Heliport

Closest report is Livermore Municipal Airport, 14.4 nm (26.7 km) SSW. Retrieved 2020/07/09 00:53 UTC (1 hour ago):

KLVK 090053Z 29015KT 10SM CLR 29/09 A2982 RMK AO2 SLP092 T02890089

Closest aviation forecast (TAF) to John Muir Mt. Diablo Medical Center Heliport

Closest forecast is Livermore Municipal Airport, 14.4 nm (26.7 km) SSW. Retrieved 2020-07-09 00:33 UTC (1 hour ago):

TAF KLVK 082331Z 0900/0924 29013KT P6SM SKC FM090400 29007KT P6SM SKC FM091000 VRB03KT P6SM SKC FM091800 28006KT P6SM SKC FM092100 28012KT P6SM SKC